ΕΜΥ, Εθνική Μετεωρολογική Υπηρεσία - Δελτία Καιρού, Προγνώσεις

ΑΕΡΟΝΑΥΤΙΛΙΑ

GREEK AIRPORTS CODES

LGKA 251330Z AUTO 30005KT 280V110 //// // ////// 24/05 Q1015 RE//=

EUROPEAN AIRPORTS CODES

LFPO 251330Z 28009KT 240V310 9999 FEW038 FEW045CB BKN11022/12 Q1018 TEMPO 2500 -TSRA BKN012 SCT035CB=